createdAt,value
2018-03-21T00:01:52.127Z,32.73
2018-03-21T00:04:21.119Z,25.60
2018-03-21T00:06:50.256Z,40.87
2018-03-21T00:09:20.096Z,28.93
2018-03-21T00:11:49.123Z,35.13
2018-03-21T00:14:18.503Z,30.20
2018-03-21T00:16:48.470Z,32.23
2018-03-21T00:19:18.363Z,32.33
2018-03-21T00:21:47.355Z,29.63
2018-03-21T00:24:16.484Z,35.80
2018-03-21T00:26:45.395Z,39.23
2018-03-21T00:29:15.431Z,29.83
2018-03-21T00:31:45.347Z,36.33
2018-03-21T00:34:15.706Z,34.93
2018-03-21T00:36:44.843Z,39.13
2018-03-21T00:39:13.967Z,38.07
2018-03-21T00:41:43.787Z,39.60
2018-03-21T00:44:14.002Z,47.93
2018-03-21T00:46:43.103Z,35.83
2018-03-21T00:49:12.199Z,37.87
2018-03-21T00:51:41.412Z,38.80
2018-03-21T00:54:10.897Z,38.00
2018-03-21T00:56:40.855Z,37.87
2018-03-21T00:59:10.829Z,38.00
2018-03-21T01:01:40.104Z,26.13
2018-03-21T01:04:09.371Z,39.60
2018-03-21T01:06:39.047Z,33.20
2018-03-21T01:09:09.102Z,33.37
2018-03-21T01:11:38.375Z,32.30
2018-03-21T01:14:08.356Z,45.37
2018-03-21T01:16:38.271Z,31.77
2018-03-21T01:19:07.242Z,44.27
2018-03-21T01:21:36.230Z,33.53
2018-03-21T01:24:05.334Z,34.97
2018-03-21T01:26:34.455Z,46.40
2018-03-21T01:29:03.414Z,36.97
2018-03-21T01:31:32.484Z,46.00
2018-03-21T01:34:01.574Z,45.67
2018-03-21T01:36:30.711Z,44.07
2018-03-21T01:38:59.906Z,39.20
2018-03-21T01:41:28.975Z,53.33
2018-03-21T01:43:58.990Z,43.33
2018-03-21T01:46:28.035Z,56.20
2018-03-21T01:48:57.255Z,57.50
2018-03-21T01:51:26.210Z,51.20
2018-03-21T01:53:55.175Z,58.00
2018-03-21T01:56:24.474Z,45.23
2018-03-21T01:58:53.861Z,45.23
2018-03-21T02:01:23.186Z,47.37
2018-03-21T02:03:52.894Z,66.27
2018-03-21T02:06:22.895Z,46.07
2018-03-21T02:08:52.617Z,46.87
2018-03-21T02:11:21.682Z,37.97
2018-03-21T02:13:50.598Z,39.73
2018-03-21T02:16:20.635Z,55.33
2018-03-21T02:18:49.971Z,47.00
2018-03-21T02:21:19.198Z,52.63
2018-03-21T02:23:48.327Z,38.30
2018-03-21T02:26:17.638Z,38.60
2018-03-21T02:28:47.533Z,45.47
2018-03-21T02:31:16.845Z,42.83
2018-03-21T02:33:46.704Z,36.00
2018-03-21T02:36:16.720Z,32.50
2018-03-21T02:38:45.607Z,42.57
2018-03-21T02:41:14.708Z,33.87
2018-03-21T02:43:43.974Z,41.73
2018-03-21T02:46:13.072Z,34.23
2018-03-21T02:48:43.807Z,37.60
2018-03-21T02:51:12.799Z,35.20
2018-03-21T02:53:43.338Z,43.07
2018-03-21T02:56:12.360Z,35.27
2018-03-21T02:58:41.395Z,47.17
2018-03-21T03:01:11.784Z,41.20
2018-03-21T03:03:40.848Z,50.40
2018-03-21T03:06:10.080Z,40.00
2018-03-21T03:08:39.074Z,40.30
2018-03-21T03:11:08.303Z,53.90
2018-03-21T03:13:37.206Z,43.87
2018-03-21T03:16:06.318Z,40.83
2018-03-21T03:18:36.451Z,42.37
2018-03-21T03:21:05.446Z,40.47
2018-03-21T03:23:35.188Z,47.10
2018-03-21T03:26:04.559Z,37.27
2018-03-21T03:28:33.654Z,43.43
2018-03-21T03:31:02.684Z,41.90
2018-03-21T03:33:32.163Z,38.93
2018-03-21T03:36:01.186Z,56.63
2018-03-21T03:38:30.301Z,47.33
2018-03-21T03:41:00.162Z,43.80
2018-03-21T03:43:29.187Z,74.83
2018-03-21T03:45:58.458Z,46.17
2018-03-21T03:48:27.459Z,45.23
2018-03-21T03:50:56.555Z,50.10
2018-03-21T03:53:25.684Z,44.43
2018-03-21T03:55:54.746Z,55.40
2018-03-21T03:58:24.863Z,53.17
2018-03-21T04:00:53.991Z,45.07
2018-03-21T04:03:22.987Z,48.03
2018-03-21T04:05:52.263Z,49.83
2018-03-21T04:08:21.952Z,44.57
2018-03-21T04:10:52.222Z,39.83
2018-03-21T04:13:21.195Z,48.07
2018-03-21T04:15:50.218Z,47.73
2018-03-21T04:18:19.315Z,45.87
2018-03-21T04:20:48.311Z,66.10
2018-03-21T04:23:17.318Z,46.33
2018-03-21T04:25:46.940Z,46.73
2018-03-21T04:28:16.081Z,57.83
2018-03-21T04:30:45.203Z,39.80
2018-03-21T04:33:16.107Z,46.80
2018-03-21T04:35:45.106Z,35.43
2018-03-21T04:38:13.999Z,34.90
2018-03-21T04:40:43.370Z,39.50
2018-03-21T04:43:12.387Z,34.33
2018-03-21T04:45:41.482Z,37.30
2018-03-21T04:48:10.487Z,36.43
2018-03-21T04:50:39.649Z,39.83
2018-03-21T04:53:08.876Z,38.93
2018-03-21T04:55:37.982Z,39.77
2018-03-21T04:58:07.394Z,41.97
2018-03-21T05:00:36.207Z,41.07
2018-03-21T05:03:05.975Z,27.63
2018-03-21T05:05:34.991Z,32.93
2018-03-21T05:08:03.866Z,23.67
2018-03-21T05:10:32.812Z,32.67
2018-03-21T05:13:01.939Z,29.47
2018-03-21T05:15:30.910Z,22.13
2018-03-21T05:17:59.995Z,25.77
2018-03-21T05:20:29.122Z,27.50
2018-03-21T05:22:58.086Z,31.23
2018-03-21T05:25:27.122Z,21.97
2018-03-21T05:27:57.098Z,27.30
2018-03-21T05:30:26.167Z,25.20
2018-03-21T05:32:55.266Z,26.40
2018-03-21T05:35:25.484Z,21.80
2018-03-21T05:37:54.507Z,20.20
2018-03-21T05:40:23.571Z,23.50
2018-03-21T05:42:52.813Z,13.60
2018-03-21T05:45:23.307Z,19.67
2018-03-21T05:47:52.379Z,24.67
2018-03-21T05:50:21.503Z,29.50
2018-03-21T05:52:50.290Z,20.83
2018-03-21T05:55:19.396Z,22.83
2018-03-21T05:57:49.566Z,21.90
2018-03-21T06:00:19.254Z,16.47
2018-03-21T06:02:48.214Z,20.53
2018-03-21T06:05:17.347Z,24.67
2018-03-21T06:07:46.235Z,25.43
2018-03-21T06:10:15.231Z,21.43
2018-03-21T06:12:44.327Z,28.53
2018-03-21T06:15:13.324Z,25.33
2018-03-21T06:17:42.215Z,18.60
2018-03-21T06:20:11.343Z,22.03
2018-03-21T06:22:40.307Z,29.43
2018-03-21T06:25:09.267Z,15.20
2018-03-21T06:27:39.311Z,23.83
2018-03-21T06:30:08.687Z,28.43
2018-03-21T06:32:37.788Z,19.07
2018-03-21T06:35:06.778Z,23.83
2018-03-21T06:37:36.043Z,21.10
2018-03-21T06:40:05.007Z,17.90
2018-03-21T06:42:34.186Z,13.13
2018-03-21T06:45:03.147Z,18.50
2018-03-21T06:47:32.091Z,15.77
2018-03-21T06:50:01.217Z,13.80
2018-03-21T06:52:30.079Z,13.50
2018-03-21T06:54:59.102Z,8.17
2018-03-21T06:57:28.271Z,12.00
2018-03-21T06:59:57.543Z,16.13
2018-03-21T07:02:26.716Z,17.97
2018-03-21T07:04:56.559Z,11.03
2018-03-21T07:07:25.924Z,12.10
2018-03-21T07:09:54.859Z,18.50
2018-03-21T07:12:23.847Z,14.43
2018-03-21T07:15:04.616Z,19.50
2018-03-21T07:17:33.427Z,12.40
2018-03-21T07:20:02.841Z,13.37
2018-03-21T07:22:32.015Z,25.73
2018-03-21T07:25:01.007Z,16.73
2018-03-21T07:27:30.307Z,14.00
2018-03-21T07:29:59.303Z,11.43
2018-03-21T07:32:28.434Z,16.47
2018-03-21T07:34:57.703Z,10.57
2018-03-21T07:37:26.663Z,10.80
2018-03-21T07:39:56.715Z,15.70
2018-03-21T07:42:25.735Z,10.37
2018-03-21T07:44:54.830Z,10.53
2018-03-21T07:47:24.139Z,11.50
2018-03-21T07:49:53.308Z,10.57
2018-03-21T07:52:22.303Z,9.83
2018-03-21T07:54:51.295Z,12.50
2018-03-21T07:57:21.475Z,11.20
2018-03-21T07:59:50.749Z,10.17
2018-03-21T08:02:19.766Z,12.73
2018-03-21T08:04:49.018Z,10.53
2018-03-21T08:07:18.890Z,10.10
2018-03-21T08:09:48.774Z,11.27
2018-03-21T08:12:17.670Z,8.87
2018-03-21T08:14:46.663Z,11.10
2018-03-21T08:17:15.763Z,11.17
2018-03-21T08:19:44.736Z,8.00
2018-03-21T08:22:14.635Z,8.30
2018-03-21T08:24:43.863Z,7.90
2018-03-21T08:27:12.964Z,15.70
2018-03-21T08:29:42.238Z,12.50
2018-03-21T08:32:11.319Z,13.90
2018-03-21T08:34:41.483Z,9.40
2018-03-21T08:37:10.759Z,5.30
2018-03-21T08:39:39.859Z,6.30
2018-03-21T08:42:08.851Z,6.87
2018-03-21T08:44:38.078Z,16.87
2018-03-21T08:47:07.075Z,8.33
2018-03-21T08:49:36.348Z,9.67
2018-03-21T08:52:05.325Z,7.37
2018-03-21T08:54:34.399Z,9.03
2018-03-21T08:57:04.346Z,10.87
2018-03-21T08:59:33.347Z,7.50
2018-03-21T09:02:02.343Z,11.50
2018-03-21T09:04:32.871Z,15.30
2018-03-21T09:07:02.074Z,6.43
2018-03-21T09:09:31.315Z,8.03
2018-03-21T09:12:00.295Z,7.40
2018-03-21T09:14:29.259Z,10.27
2018-03-21T09:16:58.259Z,7.70
2018-03-21T09:19:28.371Z,8.13
2018-03-21T09:21:57.395Z,9.50
2018-03-21T09:24:26.578Z,9.83
2018-03-21T09:26:55.767Z,8.50
2018-03-21T09:29:25.743Z,14.83
2018-03-21T09:31:55.023Z,8.60
2018-03-21T09:34:24.111Z,10.40
2018-03-21T09:36:53.900Z,9.97
2018-03-21T09:39:22.891Z,8.90
2018-03-21T09:41:51.816Z,15.00
2018-03-21T09:44:20.887Z,13.23
2018-03-21T09:46:49.811Z,14.50
2018-03-21T09:49:18.903Z,13.23
2018-03-21T09:51:47.939Z,9.27
2018-03-21T09:54:16.890Z,11.10
2018-03-21T09:56:45.959Z,14.53
2018-03-21T09:59:15.794Z,14.33
2018-03-21T10:01:45.077Z,8.13
2018-03-21T10:04:14.063Z,16.93
2018-03-21T10:06:43.268Z,18.20
2018-03-21T10:09:13.239Z,12.93
2018-03-21T10:11:43.063Z,8.07
2018-03-21T10:14:12.023Z,10.40
2018-03-21T10:16:41.010Z,13.77
2018-03-21T10:19:10.454Z,10.70
2018-03-21T10:21:40.203Z,10.90
2018-03-21T10:24:10.656Z,15.93
2018-03-21T10:26:39.730Z,15.50
2018-03-21T10:29:08.823Z,12.37
2018-03-21T10:31:38.127Z,11.77
2018-03-21T10:34:08.828Z,15.83
2018-03-21T10:36:38.671Z,11.83
2018-03-21T10:39:08.891Z,14.60
2018-03-21T10:41:38.195Z,12.77
2018-03-21T10:44:07.703Z,13.73
2018-03-21T10:46:36.835Z,14.33
2018-03-21T10:49:05.883Z,11.13
2018-03-21T10:51:34.974Z,16.40
2018-03-21T10:54:04.871Z,15.63
2018-03-21T10:56:33.930Z,13.77
2018-03-21T10:59:03.065Z,15.00
2018-03-21T11:01:35.997Z,15.03
2018-03-21T11:04:05.495Z,13.63
2018-03-21T11:06:34.691Z,9.80
2018-03-21T11:09:04.698Z,14.57
2018-03-21T11:11:34.847Z,12.40
2018-03-21T11:14:03.935Z,14.37
2018-03-21T11:16:32.922Z,22.00
2018-03-21T11:19:02.055Z,10.97
2018-03-21T11:21:31.188Z,9.70
2018-03-21T11:24:00.963Z,11.73
2018-03-21T11:26:30.059Z,11.70
2018-03-21T11:28:59.326Z,12.53
2018-03-21T11:31:28.327Z,15.00
2018-03-21T11:33:57.418Z,12.33
2018-03-21T11:36:26.759Z,11.00
2018-03-21T11:38:55.810Z,9.70
2018-03-21T11:41:25.560Z,12.03
2018-03-21T11:43:54.839Z,17.80
2018-03-21T11:46:24.176Z,11.13
2018-03-21T11:48:53.167Z,10.73
2018-03-21T11:51:22.164Z,11.20
2018-03-21T11:53:51.292Z,10.47
2018-03-21T11:56:20.306Z,26.63
2018-03-21T11:58:49.323Z,13.93
2018-03-21T12:01:18.294Z,15.70
2018-03-21T12:03:47.679Z,14.03
2018-03-21T12:06:17.017Z,14.97
2018-03-21T12:08:46.134Z,14.10
2018-03-21T12:11:15.519Z,18.03
2018-03-21T12:13:44.742Z,14.30
2018-03-21T12:16:13.538Z,15.17
2018-03-21T12:18:42.808Z,15.90
2018-03-21T12:21:12.721Z,17.23
2018-03-21T12:23:42.027Z,12.93
2018-03-21T12:26:11.046Z,20.60
2018-03-21T12:28:40.183Z,13.40
2018-03-21T12:31:10.195Z,25.50
2018-03-21T12:33:39.394Z,19.53
2018-03-21T12:36:08.840Z,10.17
2018-03-21T12:38:37.838Z,15.30
2018-03-21T12:41:06.846Z,14.10
2018-03-21T12:43:36.031Z,14.67
2018-03-21T12:46:05.031Z,12.43
2018-03-21T12:48:34.019Z,8.37
2018-03-21T12:51:03.322Z,7.90
2018-03-21T12:53:33.671Z,10.77
2018-03-21T12:56:03.157Z,14.30
2018-03-21T12:58:31.870Z,20.03
2018-03-21T13:01:00.995Z,12.93
2018-03-21T13:03:30.251Z,15.67
2018-03-21T13:05:59.289Z,20.40
2018-03-21T13:08:28.327Z,16.07
2018-03-21T13:10:57.560Z,10.03
2018-03-21T13:13:26.662Z,16.40
2018-03-21T13:15:55.759Z,10.50
2018-03-21T13:18:25.027Z,12.63
2018-03-21T13:20:54.426Z,9.80
2018-03-21T13:23:23.347Z,14.80
2018-03-21T13:25:52.523Z,12.67
2018-03-21T13:28:21.620Z,13.97
2018-03-21T13:30:50.543Z,8.43
2018-03-21T13:33:19.530Z,15.27
2018-03-21T13:35:50.141Z,13.53
2018-03-21T13:38:19.844Z,11.00
2018-03-21T13:40:49.027Z,16.50
2018-03-21T13:43:19.068Z,12.30
2018-03-21T13:45:48.403Z,18.57
2018-03-21T13:48:17.499Z,10.23
2018-03-21T13:50:47.379Z,12.27
2018-03-21T13:53:16.994Z,12.03
2018-03-21T13:55:45.987Z,12.10
2018-03-21T13:58:15.885Z,14.90
2018-03-21T14:00:45.259Z,15.50
2018-03-21T14:03:14.255Z,12.30
2018-03-21T14:05:44.075Z,10.90
2018-03-21T14:08:13.310Z,13.90
2018-03-21T14:10:42.207Z,12.87
2018-03-21T14:13:11.344Z,12.43
2018-03-21T14:15:40.462Z,12.73
2018-03-21T14:18:10.632Z,13.33
2018-03-21T14:20:40.364Z,14.00
2018-03-21T14:23:09.385Z,10.17
2018-03-21T14:25:38.486Z,13.50
2018-03-21T14:28:07.531Z,13.77
2018-03-21T14:30:37.358Z,11.80
2018-03-21T14:33:06.460Z,18.90
2018-03-21T14:35:36.125Z,12.83
2018-03-21T14:38:05.123Z,12.07
2018-03-21T14:40:34.526Z,14.37
2018-03-21T14:43:03.597Z,15.60
2018-03-21T14:45:32.823Z,15.33
2018-03-21T14:48:02.991Z,11.37
2018-03-21T14:50:32.701Z,23.37
2018-03-21T14:53:01.693Z,12.90
2018-03-21T14:55:30.867Z,17.70
2018-03-21T14:57:59.859Z,11.23
2018-03-21T15:00:29.059Z,9.83
2018-03-21T15:02:58.091Z,24.30
2018-03-21T15:05:27.251Z,13.77
2018-03-21T15:07:56.378Z,15.80
2018-03-21T15:10:25.559Z,15.00
2018-03-21T15:12:54.526Z,16.87
2018-03-21T15:15:23.413Z,21.03
2018-03-21T15:17:53.275Z,21.03
2018-03-21T15:20:22.944Z,16.30
2018-03-21T15:22:51.882Z,24.40
2018-03-21T15:25:21.974Z,20.63
2018-03-21T15:27:50.966Z,25.93
2018-03-21T15:30:20.962Z,24.87
2018-03-21T15:33:01.515Z,21.13
2018-03-21T15:35:45.757Z,29.20
2018-03-21T15:38:16.538Z,30.27
2018-03-21T15:40:45.535Z,32.93
2018-03-21T15:43:14.535Z,26.90
2018-03-21T15:45:43.731Z,30.80
2018-03-21T15:48:13.603Z,34.83
2018-03-21T15:50:43.392Z,34.93
2018-03-21T15:53:12.383Z,36.33
2018-03-21T15:55:41.382Z,46.23
2018-03-21T15:58:10.379Z,39.10
2018-03-21T16:00:39.367Z,42.80
2018-03-21T16:03:08.567Z,40.10
2018-03-21T16:05:37.564Z,42.70
2018-03-21T16:08:06.559Z,42.97
2018-03-21T16:10:35.668Z,48.20
2018-03-21T16:13:04.682Z,45.13
2018-03-21T16:15:33.639Z,43.97
2018-03-21T16:18:03.654Z,47.80
2018-03-21T16:20:32.750Z,40.10
2018-03-21T16:23:02.535Z,42.40
2018-03-21T16:25:31.584Z,38.23
2018-03-21T16:28:00.817Z,41.80
2018-03-21T16:30:30.443Z,35.77
2018-03-21T16:32:59.911Z,41.20
2018-03-21T16:35:28.918Z,40.57
2018-03-21T16:37:57.994Z,34.67
2018-03-21T16:40:26.968Z,41.00
2018-03-21T16:42:55.962Z,33.37
2018-03-21T16:45:25.159Z,32.43
2018-03-21T16:47:54.155Z,32.43
2018-03-21T16:50:23.165Z,35.50
2018-03-21T16:52:52.547Z,36.07
2018-03-21T16:55:21.702Z,35.70
2018-03-21T16:57:51.119Z,36.77
2018-03-21T17:00:19.634Z,38.70
2018-03-21T17:02:48.906Z,33.80
2018-03-21T17:05:18.364Z,41.13
2018-03-21T17:07:47.408Z,32.13
2018-03-21T17:10:16.548Z,36.73
2018-03-21T17:12:45.626Z,27.97
2018-03-21T17:15:15.417Z,33.43
2018-03-21T17:17:44.295Z,38.43
2018-03-21T17:20:13.190Z,33.63
2018-03-21T17:22:42.118Z,42.00
2018-03-21T17:25:11.119Z,41.77
2018-03-21T17:27:40.235Z,42.27
2018-03-21T17:30:09.211Z,39.33
2018-03-21T17:32:38.071Z,36.70
2018-03-21T17:35:07.203Z,44.50
2018-03-21T17:37:36.194Z,41.17
2018-03-21T17:40:05.472Z,48.10
2018-03-21T17:42:34.440Z,55.57
2018-03-21T17:45:03.383Z,51.57
2018-03-21T17:47:32.512Z,52.63
2018-03-21T17:50:01.439Z,49.77
2018-03-21T17:52:30.499Z,52.23
2018-03-21T17:54:59.497Z,53.63
2018-03-21T17:57:28.461Z,47.97
2018-03-21T17:59:57.346Z,53.93
2018-03-21T18:02:26.547Z,53.10
2018-03-21T18:04:55.443Z,53.37
2018-03-21T18:07:24.639Z,46.00
2018-03-21T18:09:53.699Z,53.50
2018-03-21T18:12:23.845Z,56.03
2018-03-21T18:14:52.894Z,54.67
2018-03-21T18:17:22.178Z,51.10
2018-03-21T18:19:51.150Z,54.67
2018-03-21T18:22:20.144Z,58.47
2018-03-21T18:24:49.138Z,51.93
2018-03-21T18:27:18.131Z,54.27
2018-03-21T18:29:47.233Z,42.20
2018-03-21T18:32:16.243Z,46.07
2018-03-21T18:34:45.555Z,42.33
2018-03-21T18:37:15.998Z,48.20
2018-03-21T18:39:47.080Z,45.40
2018-03-21T18:42:16.810Z,45.87
2018-03-21T18:44:45.875Z,44.80
2018-03-21T18:47:16.918Z,49.60
2018-03-21T18:49:46.104Z,39.57
2018-03-21T18:52:16.168Z,43.17
2018-03-21T18:54:45.164Z,38.27
2018-03-21T18:57:14.055Z,40.00
2018-03-21T18:59:43.120Z,43.37
2018-03-21T19:02:12.251Z,41.50
2018-03-21T19:04:41.138Z,35.13
2018-03-21T19:07:10.167Z,48.23
2018-03-21T19:09:40.223Z,36.20
2018-03-21T19:12:09.315Z,36.50
2018-03-21T19:14:38.443Z,33.67
2018-03-21T19:17:07.615Z,38.20
2018-03-21T19:19:36.613Z,29.90
2018-03-21T19:22:05.711Z,34.17
2018-03-21T19:24:34.804Z,39.87
2018-03-21T19:27:04.675Z,32.33
2018-03-21T19:29:33.743Z,29.60
2018-03-21T19:32:03.015Z,28.07
2018-03-21T19:34:32.254Z,29.93
2018-03-21T19:37:01.318Z,29.60
2018-03-21T19:39:30.647Z,30.40
2018-03-21T19:41:59.771Z,33.93
2018-03-21T19:44:28.743Z,26.80
2018-03-21T19:46:57.683Z,40.70
2018-03-21T19:49:27.642Z,32.03
2018-03-21T19:51:57.319Z,31.07
2018-03-21T19:54:26.715Z,27.23
2018-03-21T19:56:55.927Z,23.73
2018-03-21T19:59:25.168Z,32.93
2018-03-21T20:01:54.228Z,33.47
2018-03-21T20:04:23.223Z,26.83
2018-03-21T20:06:52.430Z,31.13
2018-03-21T20:09:21.755Z,33.10
2018-03-21T20:11:51.634Z,48.87
2018-03-21T20:14:20.839Z,30.57
2018-03-21T20:16:51.159Z,31.77
2018-03-21T20:19:20.183Z,29.73
2018-03-21T20:21:50.161Z,29.13
2018-03-21T20:24:19.579Z,43.20
2018-03-21T20:26:49.430Z,28.20
2018-03-21T20:29:18.611Z,38.70
2018-03-21T20:31:48.824Z,37.87
2018-03-21T20:34:18.051Z,28.90
2018-03-21T20:36:47.437Z,32.97
2018-03-21T20:39:16.707Z,31.90
2018-03-21T20:41:45.779Z,32.60
2018-03-21T20:44:15.081Z,34.23
2018-03-21T20:46:44.242Z,36.87
2018-03-21T20:49:14.031Z,31.43
2018-03-21T20:51:43.215Z,25.70
2018-03-21T20:54:12.524Z,30.47
2018-03-21T20:56:42.352Z,25.53
2018-03-21T20:59:11.343Z,31.23
2018-03-21T21:01:40.471Z,36.73
2018-03-21T21:04:09.433Z,29.20
2018-03-21T21:06:38.595Z,40.07
2018-03-21T21:09:07.555Z,29.90
2018-03-21T21:11:36.754Z,24.40
2018-03-21T21:14:05.987Z,30.03
2018-03-21T21:16:35.835Z,27.30
2018-03-21T21:19:04.968Z,27.80
2018-03-21T21:21:34.238Z,28.47
2018-03-21T21:24:03.370Z,33.63
2018-03-21T21:26:32.362Z,37.03
2018-03-21T21:29:01.434Z,23.73
2018-03-21T21:31:30.564Z,29.80
2018-03-21T21:33:59.684Z,28.70
2018-03-21T21:36:28.919Z,33.47
2018-03-21T21:38:58.208Z,25.83
2018-03-21T21:41:27.519Z,35.50
2018-03-21T21:43:57.039Z,31.53
2018-03-21T21:46:26.127Z,25.47
2018-03-21T21:48:55.999Z,35.40
2018-03-21T21:51:25.451Z,27.87
2018-03-21T21:53:54.452Z,22.70
2018-03-21T21:56:23.544Z,36.20
2018-03-21T21:58:53.616Z,28.80
2018-03-21T22:01:23.443Z,23.80
2018-03-21T22:03:52.394Z,30.13
2018-03-21T22:06:21.526Z,21.70
2018-03-21T22:08:50.491Z,28.77
2018-03-21T22:11:19.557Z,26.00
2018-03-21T22:13:48.682Z,28.30
2018-03-21T22:16:17.674Z,17.30
2018-03-21T22:18:47.691Z,19.83
2018-03-21T22:21:16.787Z,23.77
2018-03-21T22:23:46.871Z,23.47
2018-03-21T22:26:15.964Z,31.57
2018-03-21T22:28:45.134Z,29.13
2018-03-21T22:31:15.049Z,34.53
2018-03-21T22:33:43.970Z,36.93
2018-03-21T22:36:14.030Z,40.87
2018-03-21T22:38:43.810Z,47.67
2018-03-21T22:41:13.836Z,50.03
2018-03-21T22:43:42.825Z,38.03
2018-03-21T22:46:11.822Z,53.97
2018-03-21T22:48:41.154Z,32.20
2018-03-21T22:51:11.038Z,53.00
2018-03-21T22:53:40.266Z,39.00
2018-03-21T22:56:13.158Z,45.43
2018-03-21T22:58:44.607Z,46.30
2018-03-21T23:01:14.756Z,41.50
2018-03-21T23:03:44.136Z,44.00
2018-03-21T23:06:13.235Z,40.20
2018-03-21T23:08:45.583Z,46.77
2018-03-21T23:11:14.675Z,43.33
2018-03-21T23:13:43.802Z,55.00
2018-03-21T23:16:12.903Z,48.47
2018-03-21T23:18:41.908Z,57.90
2018-03-21T23:21:11.099Z,40.03
2018-03-21T23:23:40.091Z,61.23
2018-03-21T23:26:09.355Z,55.20
2018-03-21T23:28:40.143Z,55.27
2018-03-21T23:31:09.455Z,46.80
2018-03-21T23:33:38.618Z,53.03
2018-03-21T23:36:07.894Z,53.53
2018-03-21T23:38:36.891Z,57.63
2018-03-21T23:41:05.987Z,60.17
2018-03-21T23:43:35.291Z,64.67
2018-03-21T23:46:04.283Z,68.93
2018-03-21T23:48:33.180Z,61.90
2018-03-21T23:51:02.390Z,56.27
2018-03-21T23:53:32.291Z,55.43
2018-03-21T23:56:01.623Z,52.80
2018-03-21T23:58:31.495Z,52.63
